Time;durP1;ratioP1;P1;durP2;ratioP2;P2;SDS_P1;SDS_P2;PMS_P1;PMS_P2;Temp;Humidity;BMP_temperature;BMP_pressure;BME280_temperature;BME280_humidity;BME280_pressure;Samples;Min_cycle;Max_cycle;Signal;HPM_P1;HPM_P2
2022/10/18 00:00:54;;;;;;;36.15;19.42;;;;;;;;;;5155834;27;20054;-72
2022/10/18 00:03:40;;;;;;;37.22;19.67;;;;;;;;;;5154675;27;20046;-72
2022/10/18 00:06:26;;;;;;;32.38;18.50;;;;;;;;;;5155032;27;20038;-72
2022/10/18 00:09:12;;;;;;;34.15;19.05;;;;;;;;;;5157328;27;20054;-72
2022/10/18 00:11:57;;;;;;;32.55;18.25;;;;;;;;;;5159005;27;20058;-73
2022/10/18 00:14:43;;;;;;;34.28;18.52;;;;;;;;;;5144448;27;20023;-73
2022/10/18 00:17:28;;;;;;;31.67;17.70;;;;;;;;;;5171967;27;20010;-71
2022/10/18 00:20:14;;;;;;;29.67;17.90;;;;;;;;;;5164395;27;20019;-71
2022/10/18 00:23:00;;;;;;;27.92;16.38;;;;;;;;;;5159726;27;20465;-71
2022/10/18 00:25:45;;;;;;;17.92;11.13;;;;;;;;;;5159158;27;20041;-71
2022/10/18 00:28:32;;;;;;;16.95;10.38;;;;;;;;;;5159130;27;20075;-72
2022/10/18 00:31:22;;;;;;;13.57;9.50;;;;;;;;;;5159152;27;20023;-71
2022/10/18 00:34:12;;;;;;;15.52;9.25;;;;;;;;;;5158462;27;20097;-71
2022/10/18 00:36:58;;;;;;;13.63;9.10;;;;;;;;;;5159428;27;20031;-71
2022/10/18 00:39:43;;;;;;;14.43;8.80;;;;;;;;;;5158443;27;20083;-72
2022/10/18 00:42:30;;;;;;;15.98;9.13;;;;;;;;;;5158287;27;20467;-72
2022/10/18 00:45:22;;;;;;;13.95;9.18;;;;;;;;;;5158434;27;20030;-71
2022/10/18 00:48:09;;;;;;;12.18;9.15;;;;;;;;;;5144039;27;20027;-72
2022/10/18 00:50:55;;;;;;;13.18;8.60;;;;;;;;;;5159267;27;20043;-72
2022/10/18 00:53:40;;;;;;;12.40;8.70;;;;;;;;;;5158084;27;20321;-71
2022/10/18 00:56:26;;;;;;;14.18;8.77;;;;;;;;;;5158397;27;20466;-71
2022/10/18 00:59:14;;;;;;;17.08;9.27;;;;;;;;;;5158436;27;20019;-72
2022/10/18 01:01:59;;;;;;;13.18;8.95;;;;;;;;;;5143376;27;20091;-71
2022/10/18 01:04:45;;;;;;;12.50;9.02;;;;;;;;;;5143405;27;20030;-71
2022/10/18 01:07:48;;;;;;;17.27;9.30;;;;;;;;;;5158363;27;20113;-71
2022/10/18 01:10:40;;;;;;;14.00;9.43;;;;;;;;;;5158499;27;20015;-71
2022/10/18 01:13:32;;;;;;;12.15;8.60;;;;;;;;;;5158099;27;20359;-71
2022/10/18 01:16:36;;;;;;;14.35;9.48;;;;;;;;;;5157772;27;20011;-72
2022/10/18 01:19:40;;;;;;;15.80;9.88;;;;;;;;;;5143140;27;20026;-71
2022/10/18 01:22:47;;;;;;;13.00;9.00;;;;;;;;;;5156824;27;20502;-72
2022/10/18 01:25:39;;;;;;;14.07;10.00;;;;;;;;;;5143361;27;20023;-72
2022/10/18 01:28:34;;;;;;;14.43;9.73;;;;;;;;;;5157792;27;20030;-72
2022/10/18 01:31:27;;;;;;;14.73;10.02;;;;;;;;;;5142754;27;20030;-71
2022/10/18 01:34:15;;;;;;;15.85;9.20;;;;;;;;;;5157678;27;20026;-72
2022/10/18 01:37:03;;;;;;;19.27;9.50;;;;;;;;;;5157221;27;20118;-72
2022/10/18 01:39:50;;;;;;;13.25;9.23;;;;;;;;;;5142570;27;20011;-72
2022/10/18 01:42:36;;;;;;;15.30;10.07;;;;;;;;;;5157684;27;20098;-72
2022/10/18 01:45:23;;;;;;;16.13;9.32;;;;;;;;;;5157103;27;20113;-72
2022/10/18 01:48:10;;;;;;;15.70;10.35;;;;;;;;;;5156741;27;20462;-73
2022/10/18 01:50:56;;;;;;;16.60;9.90;;;;;;;;;;5157120;27;20101;-71
2022/10/18 01:53:42;;;;;;;15.85;10.70;;;;;;;;;;5142091;27;20528;-72
2022/10/18 01:56:41;;;;;;;18.00;10.45;;;;;;;;;;5157551;27;20022;-72
2022/10/18 01:59:27;;;;;;;23.38;10.10;;;;;;;;;;5158617;27;20142;-72
2022/10/18 02:02:25;;;;;;;16.48;10.10;;;;;;;;;;5156838;27;20036;-71
2022/10/18 02:05:29;;;;;;;17.25;9.85;;;;;;;;;;5157280;27;20019;-72
2022/10/18 02:08:34;;;;;;;17.95;10.38;;;;;;;;;;5155374;27;20500;-72
2022/10/18 02:11:19;;;;;;;15.13;9.73;;;;;;;;;;5156544;27;20074;-72
2022/10/18 02:14:07;;;;;;;16.35;9.70;;;;;;;;;;5157486;27;20459;-72
2022/10/18 02:16:54;;;;;;;19.10;11.20;;;;;;;;;;5156716;27;20348;-71
2022/10/18 02:19:46;;;;;;;15.80;11.05;;;;;;;;;;5141699;27;20027;-72
2022/10/18 02:22:32;;;;;;;15.95;11.00;;;;;;;;;;5140895;27;20023;-72
2022/10/18 02:25:21;;;;;;;26.55;11.65;;;;;;;;;;5156814;27;20031;-71
2022/10/18 02:28:07;;;;;;;28.52;13.35;;;;;;;;;;5156226;27;20023;-71
2022/10/18 02:31:08;;;;;;;26.35;13.88;;;;;;;;;;5156565;27;20033;-71
2022/10/18 02:34:01;;;;;;;22.98;12.77;;;;;;;;;;5163853;27;20001;-70
2022/10/18 02:36:49;;;;;;;20.25;11.90;;;;;;;;;;5169046;27;20118;-71
2022/10/18 02:39:36;;;;;;;18.63;12.00;;;;;;;;;;5156800;27;20419;-72
2022/10/18 02:42:22;;;;;;;18.25;12.20;;;;;;;;;;5156076;27;20057;-71
2022/10/18 02:45:07;;;;;;;19.70;12.18;;;;;;;;;;5140662;27;20023;-71
2022/10/18 02:47:53;;;;;;;18.42;11.25;;;;;;;;;;5156423;27;20360;-72
2022/10/18 02:50:39;;;;;;;17.35;10.75;;;;;;;;;;5156805;27;20203;-73
2022/10/18 02:53:24;;;;;;;18.52;11.57;;;;;;;;;;5164195;27;20019;-70
2022/10/18 02:56:10;;;;;;;19.80;11.68;;;;;;;;;;5166710;27;20006;-72
2022/10/18 02:58:55;;;;;;;18.73;12.23;;;;;;;;;;5141078;27;20080;-71
2022/10/18 03:01:41;;;;;;;20.05;11.55;;;;;;;;;;5155617;27;20079;-72
2022/10/18 03:04:26;;;;;;;23.98;12.25;;;;;;;;;;5154699;27;20017;-72
2022/10/18 03:07:12;;;;;;;19.35;11.82;;;;;;;;;;5156086;27;20019;-72
2022/10/18 03:09:57;;;;;;;18.52;11.40;;;;;;;;;;5156434;27;20023;-72
2022/10/18 03:12:43;;;;;;;16.38;11.13;;;;;;;;;;5156232;27;20086;-71
2022/10/18 03:15:29;;;;;;;20.33;11.50;;;;;;;;;;5155913;27;20095;-71
2022/10/18 03:18:14;;;;;;;20.38;11.68;;;;;;;;;;5156150;27;20030;-72
2022/10/18 03:21:06;;;;;;;19.73;11.52;;;;;;;;;;5155604;27;20031;-72
2022/10/18 03:23:52;;;;;;;18.23;11.15;;;;;;;;;;5155261;27;20015;-73
2022/10/18 03:26:37;;;;;;;22.90;11.05;;;;;;;;;;5155717;27;20050;-72
2022/10/18 03:29:23;;;;;;;19.50;10.70;;;;;;;;;;5155614;27;20022;-71
2022/10/18 03:32:09;;;;;;;19.63;11.32;;;;;;;;;;5155650;27;20022;-71
2022/10/18 03:34:54;;;;;;;23.48;12.75;;;;;;;;;;5154955;27;20022;-71
2022/10/18 03:37:40;;;;;;;23.75;12.07;;;;;;;;;;5155399;27;20038;-71
2022/10/18 03:40:25;;;;;;;19.30;10.98;;;;;;;;;;5156148;27;20054;-72
2022/10/18 03:43:11;;;;;;;20.88;11.57;;;;;;;;;;5139018;27;20447;-72
2022/10/18 03:45:57;;;;;;;24.75;12.52;;;;;;;;;;5155852;27;20026;-71
2022/10/18 03:48:42;;;;;;;24.27;13.07;;;;;;;;;;5139906;27;20092;-71
2022/10/18 03:51:28;;;;;;;30.23;13.35;;;;;;;;;;5155228;27;20054;-71
2022/10/18 03:54:13;;;;;;;23.55;12.95;;;;;;;;;;5156000;27;20026;-71
2022/10/18 03:56:59;;;;;;;30.17;13.90;;;;;;;;;;5155261;27;20022;-71
2022/10/18 03:59:45;;;;;;;25.40;14.23;;;;;;;;;;5139334;27;20320;-72
2022/10/18 04:02:30;;;;;;;30.08;14.00;;;;;;;;;;5155275;27;20027;-71
2022/10/18 04:05:16;;;;;;;28.00;14.60;;;;;;;;;;5155715;27;20098;-71
2022/10/18 04:08:02;;;;;;;28.92;14.52;;;;;;;;;;5155018;27;20022;-71
2022/10/18 04:10:47;;;;;;;28.55;14.00;;;;;;;;;;5154906;27;20023;-72
2022/10/18 04:13:33;;;;;;;35.17;15.80;;;;;;;;;;5154309;27;20034;-70
2022/10/18 04:16:19;;;;;;;35.90;15.73;;;;;;;;;;5154346;27;20042;-70
2022/10/18 04:19:05;;;;;;;29.10;16.63;;;;;;;;;;5154889;27;20019;-71
2022/10/18 04:21:50;;;;;;;29.50;16.80;;;;;;;;;;5155103;27;20026;-71
2022/10/18 04:24:36;;;;;;;31.13;16.90;;;;;;;;;;5155578;27;20050;-71
2022/10/18 04:27:22;;;;;;;34.47;17.02;;;;;;;;;;5153702;27;20412;-71
2022/10/18 04:30:07;;;;;;;31.13;16.85;;;;;;;;;;5154961;27;20019;-73
2022/10/18 04:32:53;;;;;;;36.90;17.73;;;;;;;;;;5138938;27;20056;-72
2022/10/18 04:35:39;;;;;;;32.55;17.98;;;;;;;;;;5154573;27;20030;-71
2022/10/18 04:38:24;;;;;;;38.08;18.77;;;;;;;;;;5155236;27;20031;-71
2022/10/18 04:41:10;;;;;;;39.05;18.55;;;;;;;;;;5138926;27;20075;-71
2022/10/18 04:43:55;;;;;;;43.08;19.67;;;;;;;;;;5155274;27;20022;-71
2022/10/18 04:46:41;;;;;;;34.28;18.05;;;;;;;;;;5154662;27;20033;-73
2022/10/18 04:49:26;;;;;;;45.83;19.20;;;;;;;;;;5154367;27;20030;-72
2022/10/18 04:52:12;;;;;;;26.20;14.70;;;;;;;;;;5154132;27;20014;-72
2022/10/18 04:54:57;;;;;;;25.52;15.02;;;;;;;;;;5155639;27;20026;-71
2022/10/18 04:57:43;;;;;;;27.67;14.95;;;;;;;;;;5158419;27;20464;-71
2022/10/18 05:00:29;;;;;;;26.85;14.88;;;;;;;;;;5158465;27;20079;-72
2022/10/18 05:03:14;;;;;;;26.42;14.63;;;;;;;;;;5158643;27;20041;-72
2022/10/18 05:06:00;;;;;;;24.65;13.57;;;;;;;;;;5142441;27;20058;-71
2022/10/18 05:08:46;;;;;;;24.02;13.82;;;;;;;;;;5158233;27;20026;-71
2022/10/18 05:11:31;;;;;;;22.10;13.00;;;;;;;;;;5143149;27;20058;-71
2022/10/18 05:14:17;;;;;;;22.40;14.00;;;;;;;;;;5157826;27;20053;-71
2022/10/18 05:17:02;;;;;;;22.80;13.75;;;;;;;;;;5143467;27;20094;-72
2022/10/18 05:19:48;;;;;;;36.40;18.65;;;;;;;;;;5157914;27;20019;-72
2022/10/18 05:22:34;;;;;;;44.85;19.08;;;;;;;;;;5157358;27;20098;-71
2022/10/18 05:25:19;;;;;;;31.33;14.55;;;;;;;;;;5142847;27;20027;-71
2022/10/18 05:28:05;;;;;;;29.65;16.25;;;;;;;;;;5159681;27;20028;-72
2022/10/18 05:30:51;;;;;;;30.10;15.93;;;;;;;;;;5150836;27;20019;-71
2022/10/18 05:33:36;;;;;;;26.30;14.70;;;;;;;;;;5159952;27;20102;-71
2022/10/18 05:36:22;;;;;;;29.05;15.00;;;;;;;;;;5143214;27;20389;-72
2022/10/18 05:39:07;;;;;;;28.35;15.45;;;;;;;;;;5157823;27;20019;-71
2022/10/18 05:41:53;;;;;;;33.35;14.85;;;;;;;;;;5158088;27;20168;-72
2022/10/18 05:44:39;;;;;;;36.03;17.73;;;;;;;;;;5158868;27;20019;-71
2022/10/18 05:47:24;;;;;;;36.40;15.25;;;;;;;;;;5176432;27;20074;-72
2022/10/18 05:50:10;;;;;;;38.40;15.57;;;;;;;;;;5159366;27;20021;-72
2022/10/18 05:52:56;;;;;;;23.23;13.23;;;;;;;;;;5158397;27;20011;-72
2022/10/18 05:55:41;;;;;;;26.33;14.13;;;;;;;;;;5156945;27;20106;-71
2022/10/18 05:58:27;;;;;;;27.73;14.30;;;;;;;;;;5157794;27;20026;-71
2022/10/18 06:01:12;;;;;;;20.80;11.88;;;;;;;;;;5157637;27;20400;-70
2022/10/18 06:03:58;;;;;;;18.70;12.02;;;;;;;;;;5157850;27;20090;-73
2022/10/18 06:06:44;;;;;;;23.77;12.77;;;;;;;;;;5156599;27;20105;-75
2022/10/18 06:09:29;;;;;;;22.40;12.63;;;;;;;;;;5157499;27;20022;-78
2022/10/18 06:12:15;;;;;;;19.73;11.98;;;;;;;;;;5156143;27;20326;-72
2022/10/18 06:15:00;;;;;;;28.17;12.18;;;;;;;;;;5157555;27;20106;-72
2022/10/18 06:17:46;;;;;;;24.02;11.80;;;;;;;;;;5155899;27;20018;-74
2022/10/18 06:20:32;;;;;;;22.92;11.60;;;;;;;;;;5157329;27;20029;-72
2022/10/18 06:23:17;;;;;;;20.23;10.95;;;;;;;;;;5157272;27;20420;-72
2022/10/18 06:26:05;;;;;;;24.10;10.77;;;;;;;;;;5157073;27;20046;-73
2022/10/18 06:28:50;;;;;;;18.98;10.15;;;;;;;;;;5156407;27;20105;-73
2022/10/18 06:31:36;;;;;;;19.35;9.60;;;;;;;;;;5155473;27;20026;-73
2022/10/18 06:34:21;;;;;;;20.20;10.27;;;;;;;;;;5156973;27;20006;-73
2022/10/18 06:37:08;;;;;;;19.20;11.07;;;;;;;;;;5156159;27;20043;-72
2022/10/18 06:39:53;;;;;;;24.48;9.75;;;;;;;;;;5155690;27;20076;-73
2022/10/18 06:42:39;;;;;;;21.00;10.55;;;;;;;;;;5155546;27;20041;-73
2022/10/18 06:45:24;;;;;;;17.27;8.77;;;;;;;;;;5156236;27;20029;-72
2022/10/18 06:48:10;;;;;;;13.68;8.75;;;;;;;;;;5155827;27;20019;-73
2022/10/18 06:50:57;;;;;;;17.77;9.90;;;;;;;;;;5156214;27;20026;-73
2022/10/18 06:53:42;;;;;;;17.05;9.77;;;;;;;;;;5141415;27;20049;-73
2022/10/18 06:56:28;;;;;;;23.25;10.60;;;;;;;;;;5140789;27;20018;-72
2022/10/18 06:59:13;;;;;;;15.88;8.85;;;;;;;;;;5155613;27;20083;-73
2022/10/18 07:01:59;;;;;;;13.18;7.72;;;;;;;;;;5140663;27;20484;-74
2022/10/18 07:04:45;;;;;;;19.40;9.85;;;;;;;;;;5155607;27;20441;-72
2022/10/18 07:07:30;;;;;;;15.63;8.75;;;;;;;;;;5156442;27;20015;-74
2022/10/18 07:10:16;;;;;;;22.77;9.75;;;;;;;;;;5140336;27;20101;-72
2022/10/18 07:13:01;;;;;;;21.67;10.15;;;;;;;;;;5140819;27;20011;-71
2022/10/18 07:15:47;;;;;;;22.50;10.73;;;;;;;;;;5156127;27;20097;-74
2022/10/18 07:18:34;;;;;;;23.33;11.13;;;;;;;;;;5140754;27;20021;-73
2022/10/18 07:21:21;;;;;;;19.63;9.90;;;;;;;;;;5155167;27;20109;-73
2022/10/18 07:24:06;;;;;;;14.27;8.50;;;;;;;;;;5155160;27;20018;-74
2022/10/18 07:26:52;;;;;;;17.30;9.40;;;;;;;;;;5155223;27;20022;-73
2022/10/18 07:29:38;;;;;;;18.65;8.88;;;;;;;;;;5154948;27;20047;-73
2022/10/18 07:32:24;;;;;;;13.52;8.43;;;;;;;;;;5154743;27;20359;-73
2022/10/18 07:35:09;;;;;;;18.00;9.05;;;;;;;;;;5155486;27;20022;-75
2022/10/18 07:37:55;;;;;;;12.35;8.13;;;;;;;;;;5154739;27;20053;-74
2022/10/18 07:40:40;;;;;;;11.93;8.18;;;;;;;;;;5155349;27;20030;-74
2022/10/18 07:43:27;;;;;;;12.80;8.55;;;;;;;;;;5140801;27;20113;-74
2022/10/18 07:46:13;;;;;;;9.63;7.30;;;;;;;;;;5156146;27;20473;-73
2022/10/18 07:48:59;;;;;;;12.98;7.70;;;;;;;;;;5155497;27;20037;-72
2022/10/18 07:51:44;;;;;;;12.10;7.60;;;;;;;;;;5155580;27;20050;-73
2022/10/18 07:54:30;;;;;;;12.25;7.80;;;;;;;;;;5155049;27;20026;-73
2022/10/18 07:57:15;;;;;;;11.52;8.27;;;;;;;;;;5154809;27;20075;-74
2022/10/18 08:00:01;;;;;;;12.75;7.30;;;;;;;;;;5154781;27;20079;-75
2022/10/18 08:02:47;;;;;;;13.43;8.07;;;;;;;;;;5154735;27;20364;-73
2022/10/18 08:05:32;;;;;;;12.43;8.23;;;;;;;;;;5154966;27;20101;-73
2022/10/18 08:08:18;;;;;;;15.45;9.40;;;;;;;;;;5155402;27;20023;-73
2022/10/18 08:11:05;;;;;;;14.48;8.20;;;;;;;;;;5155151;27;20102;-74
2022/10/18 08:13:51;;;;;;;12.07;7.97;;;;;;;;;;5156458;27;20352;-73
2022/10/18 08:16:37;;;;;;;12.05;8.00;;;;;;;;;;5154859;27;20083;-74
2022/10/18 08:19:22;;;;;;;12.50;7.60;;;;;;;;;;5154407;27;20050;-73
2022/10/18 08:22:08;;;;;;;10.85;7.65;;;;;;;;;;5154639;27;20031;-73
2022/10/18 08:24:54;;;;;;;12.95;7.60;;;;;;;;;;5154248;27;20033;-73
2022/10/18 08:27:39;;;;;;;10.50;7.55;;;;;;;;;;5154028;27;20022;-73
2022/10/18 08:30:25;;;;;;;13.05;7.70;;;;;;;;;;5156902;27;20089;-72
2022/10/18 08:33:10;;;;;;;13.57;8.52;;;;;;;;;;5144146;27;20071;-73
2022/10/18 08:35:57;;;;;;;14.32;8.60;;;;;;;;;;5158664;27;20019;-73
2022/10/18 08:38:42;;;;;;;11.70;7.90;;;;;;;;;;5158420;27;20029;-72
2022/10/18 08:42:00;;;;;;;12.98;8.05;;;;;;;;;;5159265;27;20034;-72
2022/10/18 08:44:47;;;;;;;10.80;8.07;;;;;;;;;;5125619;27;20041;-72
2022/10/18 08:47:41;;;;;;;11.75;8.10;;;;;;;;;;5158834;27;20078;-73
2022/10/18 08:50:34;;;;;;;15.68;8.77;;;;;;;;;;5157980;27;20106;-71
2022/10/18 08:53:24;;;;;;;19.05;9.18;;;;;;;;;;5158888;27;20407;-72
2022/10/18 08:56:13;;;;;;;21.17;8.93;;;;;;;;;;5160660;27;20342;-72
2022/10/18 08:59:00;;;;;;;14.60;9.02;;;;;;;;;;5159162;27;20014;-75
2022/10/18 09:01:58;;;;;;;14.65;9.00;;;;;;;;;;5157965;27;20026;-72
2022/10/18 09:04:49;;;;;;;17.17;9.80;;;;;;;;;;5158296;27;20045;-73
2022/10/18 09:07:44;;;;;;;15.75;9.80;;;;;;;;;;5158581;27;20432;-74
2022/10/18 09:10:30;;;;;;;17.50;10.00;;;;;;;;;;5159868;27;20023;-74
2022/10/18 09:13:35;;;;;;;18.92;9.93;;;;;;;;;;5173925;27;20011;-73
2022/10/18 09:16:24;;;;;;;14.25;9.30;;;;;;;;;;5165055;27;20015;-73
2022/10/18 09:19:22;;;;;;;14.75;9.00;;;;;;;;;;5144483;27;20029;-76
2022/10/18 09:22:18;;;;;;;20.10;9.07;;;;;;;;;;5158238;27;20025;-75
2022/10/18 09:25:23;;;;;;;14.25;9.27;;;;;;;;;;5144075;27;20078;-74
2022/10/18 09:28:14;;;;;;;16.67;8.40;;;;;;;;;;5157362;27;20015;-73
2022/10/18 09:31:12;;;;;;;14.50;8.38;;;;;;;;;;5158893;27;20037;-73
2022/10/18 09:34:03;;;;;;;12.38;7.90;;;;;;;;;;5158505;27;20015;-72
2022/10/18 09:36:49;;;;;;;11.60;7.82;;;;;;;;;;5157292;27;20341;-73
2022/10/18 09:39:36;;;;;;;13.07;7.97;;;;;;;;;;5157101;27;20348;-73
2022/10/18 09:42:27;;;;;;;9.85;6.80;;;;;;;;;;5156174;27;20436;-73
2022/10/18 09:45:22;;;;;;;17.90;7.40;;;;;;;;;;5158193;27;20051;-73
2022/10/18 09:48:08;;;;;;;14.70;7.68;;;;;;;;;;5158226;27;20023;-73
2022/10/18 09:50:57;;;;;;;11.23;7.47;;;;;;;;;;5157234;27;20018;-72
2022/10/18 09:53:50;;;;;;;15.98;7.65;;;;;;;;;;5143742;27;20041;-72
2022/10/18 09:56:39;;;;;;;11.13;7.50;;;;;;;;;;5158325;27;20014;-73
2022/10/18 09:59:28;;;;;;;20.25;8.25;;;;;;;;;;5167881;27;20105;-72
2022/10/18 10:02:22;;;;;;;14.57;7.75;;;;;;;;;;5153242;27;20022;-73
2022/10/18 10:05:11;;;;;;;11.05;7.75;;;;;;;;;;5142524;27;20528;-72
2022/10/18 10:07:58;;;;;;;14.07;8.13;;;;;;;;;;5157017;27;20019;-73
2022/10/18 10:10:45;;;;;;;14.55;7.82;;;;;;;;;;5156360;27;20026;-74
2022/10/18 10:13:31;;;;;;;12.75;8.05;;;;;;;;;;5142380;27;20019;-71
2022/10/18 10:16:17;;;;;;;14.40;8.05;;;;;;;;;;5158587;27;20018;-73
2022/10/18 10:19:03;;;;;;;13.13;8.27;;;;;;;;;;5157773;27;20018;-73
2022/10/18 10:21:50;;;;;;;14.73;8.65;;;;;;;;;;5157780;27;20080;-73
2022/10/18 10:24:45;;;;;;;15.02;8.77;;;;;;;;;;5159252;27;20462;-72
2022/10/18 10:27:31;;;;;;;11.70;8.18;;;;;;;;;;5155884;27;20501;-72
2022/10/18 10:30:27;;;;;;;13.45;7.75;;;;;;;;;;5142292;27;20348;-73
2022/10/18 10:33:31;;;;;;;14.65;8.48;;;;;;;;;;5155993;27;20122;-73
2022/10/18 10:36:18;;;;;;;17.00;10.93;;;;;;;;;;5154926;27;20070;-72
2022/10/18 10:39:04;;;;;;;16.33;9.80;;;;;;;;;;5156116;27;20352;-72
2022/10/18 10:41:49;;;;;;;17.65;8.95;;;;;;;;;;5156432;27;20183;-72
2022/10/18 10:44:35;;;;;;;15.10;8.02;;;;;;;;;;5156348;27;20046;-72
2022/10/18 10:47:27;;;;;;;9.68;6.50;;;;;;;;;;5141080;27;20083;-74
2022/10/18 10:50:21;;;;;;;12.27;7.28;;;;;;;;;;5157453;27;20019;-74
2022/10/18 10:53:19;;;;;;;10.30;5.95;;;;;;;;;;5141169;27;20015;-74
2022/10/18 10:56:10;;;;;;;12.60;6.05;;;;;;;;;;5155648;27;20337;-73
2022/10/18 10:59:07;;;;;;;10.23;5.93;;;;;;;;;;5162177;27;20043;-75
2022/10/18 11:02:11;;;;;;;10.60;6.00;;;;;;;;;;5128463;27;20461;-75
2022/10/18 11:05:14;;;;;;;8.40;5.82;;;;;;;;;;5155185;27;20015;-74
2022/10/18 11:08:04;;;;;;;8.80;6.28;;;;;;;;;;5154814;27;20343;-75
2022/10/18 11:11:02;;;;;;;12.05;6.43;;;;;;;;;;5156756;27;20025;-74
2022/10/18 11:13:53;;;;;;;8.48;6.30;;;;;;;;;;5155343;27;20341;-73
2022/10/18 11:16:50;;;;;;;7.00;5.05;;;;;;;;;;5155236;27;20428;-77
2022/10/18 11:19:36;;;;;;;10.38;5.82;;;;;;;;;;5155584;27;20026;-72
2022/10/18 11:22:24;;;;;;;8.95;6.30;;;;;;;;;;5156077;27;20033;-73
2022/10/18 11:25:14;;;;;;;11.73;7.22;;;;;;;;;;5155581;27;20038;-73
2022/10/18 11:28:04;;;;;;;11.60;5.30;;;;;;;;;;5155289;27;20091;-73
2022/10/18 11:30:52;;;;;;;8.25;5.20;;;;;;;;;;5155630;27;20364;-75
2022/10/18 11:33:40;;;;;;;8.27;5.47;;;;;;;;;;5155911;27;20015;-74
2022/10/18 11:36:29;;;;;;;10.60;6.18;;;;;;;;;;5154651;27;20035;-78
2022/10/18 11:39:20;;;;;;;16.33;6.97;;;;;;;;;;5154898;27;20021;-78
2022/10/18 11:42:24;;;;;;;9.48;5.68;;;;;;;;;;5155238;27;20086;-77
2022/10/18 11:45:28;;;;;;;9.45;5.82;;;;;;;;;;5122634;27;20070;-78
2022/10/18 11:48:14;;;;;;;10.43;6.00;;;;;;;;;;5139970;27;20079;-77
2022/10/18 11:51:09;;;;;;;7.63;5.65;;;;;;;;;;5140321;27;20026;-76
2022/10/18 11:53:54;;;;;;;11.02;6.43;;;;;;;;;;5155069;27;20467;-78
2022/10/18 11:56:40;;;;;;;9.35;6.15;;;;;;;;;;5140151;27;20037;-71
2022/10/18 11:59:25;;;;;;;11.77;6.20;;;;;;;;;;5154726;27;20412;-73
2022/10/18 12:02:40;;;;;;;10.13;6.32;;;;;;;;;;5140810;27;20061;-73
2022/10/18 12:05:27;;;;;;;10.05;6.43;;;;;;;;;;5148567;27;20019;-73
2022/10/18 12:08:16;;;;;;;11.88;5.90;;;;;;;;;;5154428;27;20018;-74
2022/10/18 12:11:07;;;;;;;8.85;5.38;;;;;;;;;;5155261;27;20019;-72
2022/10/18 12:14:06;;;;;;;8.38;6.03;;;;;;;;;;5140314;27;20344;-73
2022/10/18 12:16:55;;;;;;;10.73;6.60;;;;;;;;;;5154335;27;20048;-74
2022/10/18 12:19:42;;;;;;;13.20;6.50;;;;;;;;;;5154974;27;20019;-72
2022/10/18 12:22:27;;;;;;;8.35;5.93;;;;;;;;;;5154815;27;20166;-72
2022/10/18 12:25:15;;;;;;;10.95;5.93;;;;;;;;;;5154932;27;20018;-72
2022/10/18 12:28:03;;;;;;;9.48;6.00;;;;;;;;;;5154716;27;20113;-73
2022/10/18 12:31:05;;;;;;;6.95;5.10;;;;;;;;;;5155942;27;20026;-72
2022/10/18 12:33:55;;;;;;;10.45;6.35;;;;;;;;;;5139538;27;20025;-73
2022/10/18 12:36:59;;;;;;;9.60;6.20;;;;;;;;;;5133858;28;20043;-73
2022/10/18 12:39:57;;;;;;;10.25;5.80;;;;;;;;;;5134463;28;20041;-74
2022/10/18 12:42:44;;;;;;;10.43;5.80;;;;;;;;;;5134431;28;20115;-75
2022/10/18 12:45:34;;;;;;;9.60;5.63;;;;;;;;;;5134853;28;20078;-76
2022/10/18 12:48:34;;;;;;;7.00;4.85;;;;;;;;;;5132639;28;20034;-74
2022/10/18 12:51:22;;;;;;;7.75;4.75;;;;;;;;;;5134534;28;20031;-75
2022/10/18 12:54:10;;;;;;;8.70;5.38;;;;;;;;;;5134104;28;20023;-74
2022/10/18 12:56:57;;;;;;;9.98;5.40;;;;;;;;;;5134476;28;20015;-75
2022/10/18 12:59:46;;;;;;;8.98;4.75;;;;;;;;;;5134484;28;20023;-75
2022/10/18 13:02:32;;;;;;;10.20;5.30;;;;;;;;;;5134063;28;20015;-75
2022/10/18 13:05:43;;;;;;;7.57;4.60;;;;;;;;;;5133067;28;20497;-74
2022/10/18 13:08:29;;;;;;;6.63;4.80;;;;;;;;;;5133333;28;20050;-73
2022/10/18 13:11:28;;;;;;;8.10;4.97;;;;;;;;;;5133267;28;20118;-74
2022/10/18 13:14:26;;;;;;;7.97;4.95;;;;;;;;;;5134639;28;20027;-73
2022/10/18 13:17:38;;;;;;;7.35;4.82;;;;;;;;;;5146299;27;20043;-74
2022/10/18 13:20:36;;;;;;;7.45;5.80;;;;;;;;;;5137407;27;20095;-76
2022/10/18 13:23:34;;;;;;;12.40;6.03;;;;;;;;;;5137498;27;20374;-73
2022/10/18 13:26:38;;;;;;;9.65;5.00;;;;;;;;;;5137887;27;20468;-74
2022/10/18 13:29:42;;;;;;;7.13;4.47;;;;;;;;;;5137089;27;20040;-74
2022/10/18 13:32:35;;;;;;;11.40;5.28;;;;;;;;;;5137203;27;20111;-75
2022/10/18 13:35:39;;;;;;;8.90;4.68;;;;;;;;;;5136813;27;20068;-74
2022/10/18 13:38:40;;;;;;;7.35;5.25;;;;;;;;;;5137473;27;20039;-74
2022/10/18 13:41:30;;;;;;;9.63;4.97;;;;;;;;;;5153240;27;20027;-73
2022/10/18 13:44:24;;;;;;;9.95;5.18;;;;;;;;;;5137904;27;20080;-78
2022/10/18 13:47:11;;;;;;;8.70;4.50;;;;;;;;;;5137383;27;20083;-78
2022/10/18 13:50:23;;;;;;;8.60;4.47;;;;;;;;;;5138658;27;20046;-77
2022/10/18 13:53:08;;;;;;;8.77;4.38;;;;;;;;;;5138271;27;20015;-76
2022/10/18 13:56:07;;;;;;;6.00;4.00;;;;;;;;;;5137485;27;20027;-76
2022/10/18 13:59:09;;;;;;;7.43;4.20;;;;;;;;;;5135913;27;20015;-76
2022/10/18 14:01:58;;;;;;;7.20;4.10;;;;;;;;;;5136070;27;20521;-76
2022/10/18 14:04:50;;;;;;;6.68;4.25;;;;;;;;;;5136694;27;20035;-75
2022/10/18 14:07:36;;;;;;;33.95;21.55;;;;;;;;;;5136135;27;20015;-76
2022/10/18 14:10:23;;;;;;;11.95;8.55;;;;;;;;;;5136633;27;20018;-75
2022/10/18 14:13:15;;;;;;;14.77;9.88;;;;;;;;;;5136435;27;20015;-75
2022/10/18 14:16:19;;;;;;;9.30;4.57;;;;;;;;;;5136539;27;20023;-75
2022/10/18 14:19:27;;;;;;;10.07;5.20;;;;;;;;;;5136520;27;20050;-75
2022/10/18 14:22:19;;;;;;;12.38;4.75;;;;;;;;;;5135810;27;20043;-75
2022/10/18 14:25:18;;;;;;;8.73;4.00;;;;;;;;;;5136434;27;20108;-75
2022/10/18 14:28:16;;;;;;;9.52;4.53;;;;;;;;;;5135752;27;20031;-75
2022/10/18 14:31:05;;;;;;;11.25;5.20;;;;;;;;;;5135695;27;20076;-76
2022/10/18 14:33:52;;;;;;;7.97;5.20;;;;;;;;;;5135384;27;20072;-77
2022/10/18 14:36:41;;;;;;;8.98;4.95;;;;;;;;;;5142307;27;20038;-77
2022/10/18 14:39:31;;;;;;;12.95;4.93;;;;;;;;;;5156934;27;20011;-77
2022/10/18 14:42:19;;;;;;;10.85;4.85;;;;;;;;;;5156052;27;20090;-76
2022/10/18 14:45:16;;;;;;;9.15;5.50;;;;;;;;;;5157309;27;20018;-75
2022/10/18 14:48:05;;;;;;;14.75;5.78;;;;;;;;;;5157770;27;20023;-76
2022/10/18 14:50:59;;;;;;;9.80;4.78;;;;;;;;;;5156938;27;20031;-76
2022/10/18 14:53:45;;;;;;;13.60;5.40;;;;;;;;;;5158354;27;20019;-76
2022/10/18 14:56:35;;;;;;;12.35;5.03;;;;;;;;;;5158467;27;20087;-77
2022/10/18 14:59:23;;;;;;;12.35;5.75;;;;;;;;;;5159387;27;20018;-76
2022/10/18 15:02:13;;;;;;;10.45;5.57;;;;;;;;;;5141314;27;20025;-77
2022/10/18 15:05:04;;;;;;;12.73;5.72;;;;;;;;;;5156746;27;20011;-77
2022/10/18 15:07:51;;;;;;;13.43;5.88;;;;;;;;;;5141816;27;20321;-76
2022/10/18 15:10:36;;;;;;;9.95;5.72;;;;;;;;;;5158339;27;20508;-77
2022/10/18 15:13:23;;;;;;;13.13;5.60;;;;;;;;;;5161139;27;20029;-77
2022/10/18 15:16:17;;;;;;;17.02;5.78;;;;;;;;;;5158345;27;20014;-77
2022/10/18 15:19:21;;;;;;;21.42;6.65;;;;;;;;;;5142113;27;20019;-78
2022/10/18 15:22:08;;;;;;;18.30;6.82;;;;;;;;;;5142337;27;20022;-77
2022/10/18 15:25:26;;;;;;;14.55;6.35;;;;;;;;;;5156406;27;20022;-77
2022/10/18 15:28:27;;;;;;;13.15;7.03;;;;;;;;;;5123877;27;20072;-75
2022/10/18 15:31:31;;;;;;;12.60;6.55;;;;;;;;;;5157211;27;20113;-76
2022/10/18 15:34:19;;;;;;;33.90;9.30;;;;;;;;;;5155570;27;20036;-76
2022/10/18 15:37:15;;;;;;;34.38;9.63;;;;;;;;;;5141106;27;20046;-77
2022/10/18 15:40:19;;;;;;;34.78;9.63;;;;;;;;;;5156258;27;20038;-76
2022/10/18 15:43:25;;;;;;;36.80;10.48;;;;;;;;;;5141298;27;20029;-76
2022/10/18 15:46:27;;;;;;;33.25;11.60;;;;;;;;;;5155816;27;20041;-75
2022/10/18 15:49:31;;;;;;;28.77;10.82;;;;;;;;;;5155982;27;20022;-77
2022/10/18 15:52:20;;;;;;;34.85;17.27;;;;;;;;;;5156495;27;20041;-77
2022/10/18 15:55:24;;;;;;;44.20;21.35;;;;;;;;;;5156229;27;20014;-76
2022/10/18 15:58:20;;;;;;;41.97;18.58;;;;;;;;;;5155526;27;20031;-75
2022/10/18 16:01:13;;;;;;;28.33;14.93;;;;;;;;;;5154641;27;20019;-77
2022/10/18 16:04:00;;;;;;;38.60;15.90;;;;;;;;;;5155253;27;20356;-76
2022/10/18 16:06:45;;;;;;;36.75;14.45;;;;;;;;;;5155338;27;20022;-77
2022/10/18 16:09:31;;;;;;;46.60;17.08;;;;;;;;;;5156202;27;20026;-76
2022/10/18 16:12:17;;;;;;;40.17;15.07;;;;;;;;;;5141503;27;20018;-75
2022/10/18 16:15:02;;;;;;;25.77;12.45;;;;;;;;;;5156488;27;20021;-77
2022/10/18 16:17:48;;;;;;;32.38;12.30;;;;;;;;;;5156821;27;20405;-76
2022/10/18 16:20:34;;;;;;;41.95;14.02;;;;;;;;;;5155665;27;20018;-77
2022/10/18 16:23:21;;;;;;;46.95;18.15;;;;;;;;;;5155467;27;20023;-77
2022/10/18 16:26:07;;;;;;;45.35;18.60;;;;;;;;;;5155142;27;20023;-76
2022/10/18 16:28:54;;;;;;;35.90;17.58;;;;;;;;;;5140010;27;20101;-76
2022/10/18 16:31:39;;;;;;;48.72;20.02;;;;;;;;;;5154939;27;20019;-75
2022/10/18 16:34:25;;;;;;;53.05;20.08;;;;;;;;;;5156596;27;20025;-76
2022/10/18 16:37:11;;;;;;;44.00;17.17;;;;;;;;;;5155386;27;20043;-76